sensor_id;sensor_type;location;lat;lon;timestamp;temperature;humidity
16521;DHT22;8373;48.110;11.522;2023-04-30T00:02:18;14.40;72.10
16521;DHT22;8373;48.110;11.522;2023-04-30T00:04:46;14.30;72.30
16521;DHT22;8373;48.110;11.522;2023-04-30T00:07:12;14.30;72.60
16521;DHT22;8373;48.110;11.522;2023-04-30T00:09:40;14.40;72.70
16521;DHT22;8373;48.110;11.522;2023-04-30T00:12:08;14.30;72.50
16521;DHT22;8373;48.110;11.522;2023-04-30T00:14:35;14.30;72.90
16521;DHT22;8373;48.110;11.522;2023-04-30T00:17:02;14.30;72.90
16521;DHT22;8373;48.110;11.522;2023-04-30T00:19:29;14.20;72.80
16521;DHT22;8373;48.110;11.522;2023-04-30T00:21:56;14.30;73.40
16521;DHT22;8373;48.110;11.522;2023-04-30T00:24:26;14.30;73.40
16521;DHT22;8373;48.110;11.522;2023-04-30T00:26:53;14.30;73.60
16521;DHT22;8373;48.110;11.522;2023-04-30T00:29:21;14.30;73.90
16521;DHT22;8373;48.110;11.522;2023-04-30T00:31:48;14.20;73.40
16521;DHT22;8373;48.110;11.522;2023-04-30T00:34:15;14.20;73.60
16521;DHT22;8373;48.110;11.522;2023-04-30T00:36:42;14.20;73.90
16521;DHT22;8373;48.110;11.522;2023-04-30T00:39:09;14.30;74.00
16521;DHT22;8373;48.110;11.522;2023-04-30T00:41:36;14.30;73.60
16521;DHT22;8373;48.110;11.522;2023-04-30T00:44:04;14.30;73.80
16521;DHT22;8373;48.110;11.522;2023-04-30T00:46:32;14.30;73.80
16521;DHT22;8373;48.110;11.522;2023-04-30T00:48:59;14.20;73.70
16521;DHT22;8373;48.110;11.522;2023-04-30T00:51:30;14.30;74.10
16521;DHT22;8373;48.110;11.522;2023-04-30T00:53:59;14.20;73.90
16521;DHT22;8373;48.110;11.522;2023-04-30T00:56:27;14.20;73.90
16521;DHT22;8373;48.110;11.522;2023-04-30T00:58:55;14.20;74.00
16521;DHT22;8373;48.110;11.522;2023-04-30T01:01:22;14.20;74.10
16521;DHT22;8373;48.110;11.522;2023-04-30T01:03:51;14.30;73.90
16521;DHT22;8373;48.110;11.522;2023-04-30T01:06:18;14.30;73.70
16521;DHT22;8373;48.110;11.522;2023-04-30T01:08:45;14.30;73.40
16521;DHT22;8373;48.110;11.522;2023-04-30T01:11:20;14.40;73.40
16521;DHT22;8373;48.110;11.522;2023-04-30T01:13:54;14.30;73.20
16521;DHT22;8373;48.110;11.522;2023-04-30T01:16:26;14.30;73.50
16521;DHT22;8373;48.110;11.522;2023-04-30T01:18:58;14.40;73.30
16521;DHT22;8373;48.110;11.522;2023-04-30T01:21:27;14.30;72.90
16521;DHT22;8373;48.110;11.522;2023-04-30T01:24:16;14.30;72.90
16521;DHT22;8373;48.110;11.522;2023-04-30T01:26:55;14.20;73.10
16521;DHT22;8373;48.110;11.522;2023-04-30T01:29:26;14.20;73.40
16521;DHT22;8373;48.110;11.522;2023-04-30T01:31:54;14.10;73.50
16521;DHT22;8373;48.110;11.522;2023-04-30T01:34:21;14.10;73.80
16521;DHT22;8373;48.110;11.522;2023-04-30T01:36:56;14.10;73.90
16521;DHT22;8373;48.110;11.522;2023-04-30T01:39:43;14.00;73.80
16521;DHT22;8373;48.110;11.522;2023-04-30T01:42:18;14.00;74.10
16521;DHT22;8373;48.110;11.522;2023-04-30T01:45:19;14.00;74.30
16521;DHT22;8373;48.110;11.522;2023-04-30T01:47:54;14.00;74.40
16521;DHT22;8373;48.110;11.522;2023-04-30T01:50:28;13.90;74.50
16521;DHT22;8373;48.110;11.522;2023-04-30T01:53:01;13.90;74.70
16521;DHT22;8373;48.110;11.522;2023-04-30T01:55:33;13.90;74.70
16521;DHT22;8373;48.110;11.522;2023-04-30T01:58:04;13.90;74.80
16521;DHT22;8373;48.110;11.522;2023-04-30T02:00:33;14.00;74.80
16521;DHT22;8373;48.110;11.522;2023-04-30T02:03:00;13.90;74.70
16521;DHT22;8373;48.110;11.522;2023-04-30T02:05:27;13.90;74.70
16521;DHT22;8373;48.110;11.522;2023-04-30T02:07:54;13.80;74.50
16521;DHT22;8373;48.110;11.522;2023-04-30T02:10:24;13.70;74.90
16521;DHT22;8373;48.110;11.522;2023-04-30T02:12:51;13.80;75.40
16521;DHT22;8373;48.110;11.522;2023-04-30T02:15:18;13.80;75.40
16521;DHT22;8373;48.110;11.522;2023-04-30T02:17:47;13.80;75.30
16521;DHT22;8373;48.110;11.522;2023-04-30T02:20:14;13.80;75.20
16521;DHT22;8373;48.110;11.522;2023-04-30T02:22:41;13.60;74.80
16521;DHT22;8373;48.110;11.522;2023-04-30T02:25:08;13.60;75.20
16521;DHT22;8373;48.110;11.522;2023-04-30T02:27:37;13.60;75.60
16521;DHT22;8373;48.110;11.522;2023-04-30T02:30:05;13.60;75.40
16521;DHT22;8373;48.110;11.522;2023-04-30T02:32:32;13.60;75.30
16521;DHT22;8373;48.110;11.522;2023-04-30T02:35:00;13.60;75.30
16521;DHT22;8373;48.110;11.522;2023-04-30T02:37:28;13.60;75.40
16521;DHT22;8373;48.110;11.522;2023-04-30T02:39:55;13.50;75.50
16521;DHT22;8373;48.110;11.522;2023-04-30T02:42:22;13.50;75.60
16521;DHT22;8373;48.110;11.522;2023-04-30T02:44:49;13.40;75.70
16521;DHT22;8373;48.110;11.522;2023-04-30T02:47:16;13.50;76.20
16521;DHT22;8373;48.110;11.522;2023-04-30T02:49:43;13.50;76.10
16521;DHT22;8373;48.110;11.522;2023-04-30T02:52:11;13.40;75.90
16521;DHT22;8373;48.110;11.522;2023-04-30T02:54:38;13.20;76.00
16521;DHT22;8373;48.110;11.522;2023-04-30T02:57:05;13.20;76.40
16521;DHT22;8373;48.110;11.522;2023-04-30T02:59:32;13.20;76.40
16521;DHT22;8373;48.110;11.522;2023-04-30T03:01:59;13.10;76.50
16521;DHT22;8373;48.110;11.522;2023-04-30T03:04:26;13.00;76.50
16521;DHT22;8373;48.110;11.522;2023-04-30T03:06:53;13.00;76.80
16521;DHT22;8373;48.110;11.522;2023-04-30T03:09:21;13.10;76.90
16521;DHT22;8373;48.110;11.522;2023-04-30T03:11:48;13.20;76.60
16521;DHT22;8373;48.110;11.522;2023-04-30T03:14:15;13.20;76.40
16521;DHT22;8373;48.110;11.522;2023-04-30T03:16:42;13.30;76.40
16521;DHT22;8373;48.110;11.522;2023-04-30T03:19:09;13.30;76.10
16521;DHT22;8373;48.110;11.522;2023-04-30T03:21:36;13.40;76.10
16521;DHT22;8373;48.110;11.522;2023-04-30T03:24:03;13.40;75.50
16521;DHT22;8373;48.110;11.522;2023-04-30T03:26:32;13.50;75.30
16521;DHT22;8373;48.110;11.522;2023-04-30T03:28:58;13.50;75.20
16521;DHT22;8373;48.110;11.522;2023-04-30T03:31:26;13.50;75.20
16521;DHT22;8373;48.110;11.522;2023-04-30T03:33:53;13.50;75.20
16521;DHT22;8373;48.110;11.522;2023-04-30T03:36:20;13.50;75.20
16521;DHT22;8373;48.110;11.522;2023-04-30T03:38:47;13.50;75.00
16521;DHT22;8373;48.110;11.522;2023-04-30T03:41:14;13.50;75.20
16521;DHT22;8373;48.110;11.522;2023-04-30T03:43:42;13.40;75.20
16521;DHT22;8373;48.110;11.522;2023-04-30T03:46:09;13.40;75.40
16521;DHT22;8373;48.110;11.522;2023-04-30T03:48:36;13.30;75.20
16521;DHT22;8373;48.110;11.522;2023-04-30T03:51:03;13.30;75.30
16521;DHT22;8373;48.110;11.522;2023-04-30T03:53:30;13.20;75.60
16521;DHT22;8373;48.110;11.522;2023-04-30T03:55:57;13.20;75.60
16521;DHT22;8373;48.110;11.522;2023-04-30T03:58:24;13.20;75.90
16521;DHT22;8373;48.110;11.522;2023-04-30T04:00:53;13.10;75.80
16521;DHT22;8373;48.110;11.522;2023-04-30T04:03:20;13.10;76.10
16521;DHT22;8373;48.110;11.522;2023-04-30T04:05:47;13.10;76.00
16521;DHT22;8373;48.110;11.522;2023-04-30T04:08:14;13.20;76.10
16521;DHT22;8373;48.110;11.522;2023-04-30T04:10:41;13.20;76.10
16521;DHT22;8373;48.110;11.522;2023-04-30T04:13:08;13.20;75.80
16521;DHT22;8373;48.110;11.522;2023-04-30T04:15:36;13.20;75.60
16521;DHT22;8373;48.110;11.522;2023-04-30T04:18:04;13.20;75.70
16521;DHT22;8373;48.110;11.522;2023-04-30T04:20:32;13.20;75.70
16521;DHT22;8373;48.110;11.522;2023-04-30T04:22:59;13.20;75.50
16521;DHT22;8373;48.110;11.522;2023-04-30T04:25:26;13.20;75.80
16521;DHT22;8373;48.110;11.522;2023-04-30T04:27:53;13.20;75.70
16521;DHT22;8373;48.110;11.522;2023-04-30T04:30:20;13.30;75.50
16521;DHT22;8373;48.110;11.522;2023-04-30T04:32:47;13.30;75.40
16521;DHT22;8373;48.110;11.522;2023-04-30T04:35:20;13.30;75.30
16521;DHT22;8373;48.110;11.522;2023-04-30T04:37:47;13.30;74.80
16521;DHT22;8373;48.110;11.522;2023-04-30T04:40:13;13.30;74.70
16521;DHT22;8373;48.110;11.522;2023-04-30T04:42:40;13.30;74.80
16521;DHT22;8373;48.110;11.522;2023-04-30T04:45:08;13.40;74.80
16521;DHT22;8373;48.110;11.522;2023-04-30T04:47:35;13.40;74.90
16521;DHT22;8373;48.110;11.522;2023-04-30T04:50:03;13.40;74.70
16521;DHT22;8373;48.110;11.522;2023-04-30T04:52:32;13.50;74.80
16521;DHT22;8373;48.110;11.522;2023-04-30T04:54:59;13.50;74.60
16521;DHT22;8373;48.110;11.522;2023-04-30T04:57:26;13.50;74.80
16521;DHT22;8373;48.110;11.522;2023-04-30T04:59:53;13.50;74.60
16521;DHT22;8373;48.110;11.522;2023-04-30T05:02:20;13.50;73.90
16521;DHT22;8373;48.110;11.522;2023-04-30T05:04:48;13.50;74.30
16521;DHT22;8373;48.110;11.522;2023-04-30T05:07:16;13.50;74.40
16521;DHT22;8373;48.110;11.522;2023-04-30T05:09:45;13.50;74.30
16521;DHT22;8373;48.110;11.522;2023-04-30T05:12:12;13.50;74.20
16521;DHT22;8373;48.110;11.522;2023-04-30T05:14:39;13.50;74.30
16521;DHT22;8373;48.110;11.522;2023-04-30T05:17:06;13.50;74.00
16521;DHT22;8373;48.110;11.522;2023-04-30T05:19:33;13.50;74.00
16521;DHT22;8373;48.110;11.522;2023-04-30T05:22:00;13.50;74.30
16521;DHT22;8373;48.110;11.522;2023-04-30T05:24:27;13.50;74.20
16521;DHT22;8373;48.110;11.522;2023-04-30T05:26:55;13.50;73.80
16521;DHT22;8373;48.110;11.522;2023-04-30T05:29:22;13.50;74.20
16521;DHT22;8373;48.110;11.522;2023-04-30T05:31:49;13.50;74.30
16521;DHT22;8373;48.110;11.522;2023-04-30T05:34:16;13.50;74.20
16521;DHT22;8373;48.110;11.522;2023-04-30T05:36:43;13.50;74.20
16521;DHT22;8373;48.110;11.522;2023-04-30T05:39:10;13.50;74.20
16521;DHT22;8373;48.110;11.522;2023-04-30T05:41:37;13.50;74.40
16521;DHT22;8373;48.110;11.522;2023-04-30T05:44:05;13.50;74.20
16521;DHT22;8373;48.110;11.522;2023-04-30T05:46:32;13.60;74.30
16521;DHT22;8373;48.110;11.522;2023-04-30T05:49:00;13.60;74.30
16521;DHT22;8373;48.110;11.522;2023-04-30T05:51:27;13.70;74.10
16521;DHT22;8373;48.110;11.522;2023-04-30T05:53:54;13.70;73.50
16521;DHT22;8373;48.110;11.522;2023-04-30T05:56:22;13.70;73.40
16521;DHT22;8373;48.110;11.522;2023-04-30T05:58:49;13.70;73.40
16521;DHT22;8373;48.110;11.522;2023-04-30T06:01:18;13.70;73.40
16521;DHT22;8373;48.110;11.522;2023-04-30T06:03:45;13.80;73.60
16521;DHT22;8373;48.110;11.522;2023-04-30T06:06:12;13.70;73.40
16521;DHT22;8373;48.110;11.522;2023-04-30T06:08:40;13.80;73.60
16521;DHT22;8373;48.110;11.522;2023-04-30T06:11:10;13.80;73.40
16521;DHT22;8373;48.110;11.522;2023-04-30T06:13:37;13.70;73.50
16521;DHT22;8373;48.110;11.522;2023-04-30T06:16:05;13.70;73.50
16521;DHT22;8373;48.110;11.522;2023-04-30T06:18:34;13.80;73.70
16521;DHT22;8373;48.110;11.522;2023-04-30T06:21:01;13.80;73.50
16521;DHT22;8373;48.110;11.522;2023-04-30T06:23:28;13.90;73.50
16521;DHT22;8373;48.110;11.522;2023-04-30T06:25:55;14.00;73.10
16521;DHT22;8373;48.110;11.522;2023-04-30T06:28:22;14.10;72.70
16521;DHT22;8373;48.110;11.522;2023-04-30T06:30:49;14.20;72.80
16521;DHT22;8373;48.110;11.522;2023-04-30T06:33:16;14.30;72.80
16521;DHT22;8373;48.110;11.522;2023-04-30T06:35:44;14.40;72.20
16521;DHT22;8373;48.110;11.522;2023-04-30T06:38:12;14.60;72.00
16521;DHT22;8373;48.110;11.522;2023-04-30T06:40:39;14.70;70.90
16521;DHT22;8373;48.110;11.522;2023-04-30T06:43:06;14.80;71.00
16521;DHT22;8373;48.110;11.522;2023-04-30T06:45:33;14.90;70.50
16521;DHT22;8373;48.110;11.522;2023-04-30T06:48:00;15.10;69.80
16521;DHT22;8373;48.110;11.522;2023-04-30T06:50:27;15.20;69.40
16521;DHT22;8373;48.110;11.522;2023-04-30T06:52:55;15.40;68.30
16521;DHT22;8373;48.110;11.522;2023-04-30T06:55:22;15.40;67.90
16521;DHT22;8373;48.110;11.522;2023-04-30T06:57:49;15.50;67.30
16521;DHT22;8373;48.110;11.522;2023-04-30T07:00:17;15.50;66.90
16521;DHT22;8373;48.110;11.522;2023-04-30T07:02:44;15.60;66.80
16521;DHT22;8373;48.110;11.522;2023-04-30T07:05:12;15.60;66.70
16521;DHT22;8373;48.110;11.522;2023-04-30T07:07:39;15.60;66.50
16521;DHT22;8373;48.110;11.522;2023-04-30T07:10:08;15.50;66.20
16521;DHT22;8373;48.110;11.522;2023-04-30T07:12:35;15.50;66.50
16521;DHT22;8373;48.110;11.522;2023-04-30T07:15:02;15.60;66.90
16521;DHT22;8373;48.110;11.522;2023-04-30T07:17:29;15.70;66.10
16521;DHT22;8373;48.110;11.522;2023-04-30T07:19:56;15.90;65.20
16521;DHT22;8373;48.110;11.522;2023-04-30T07:22:23;16.20;64.90
16521;DHT22;8373;48.110;11.522;2023-04-30T07:24:50;16.60;64.50
16521;DHT22;8373;48.110;11.522;2023-04-30T07:27:18;16.90;63.00
16521;DHT22;8373;48.110;11.522;2023-04-30T07:29:45;17.10;62.70
16521;DHT22;8373;48.110;11.522;2023-04-30T07:32:13;17.40;62.50
16521;DHT22;8373;48.110;11.522;2023-04-30T07:34:40;17.60;61.40
16521;DHT22;8373;48.110;11.522;2023-04-30T07:37:08;17.60;60.60
16521;DHT22;8373;48.110;11.522;2023-04-30T07:39:35;17.60;59.60
16521;DHT22;8373;48.110;11.522;2023-04-30T07:42:02;17.50;59.90
16521;DHT22;8373;48.110;11.522;2023-04-30T07:44:30;17.30;59.80
16521;DHT22;8373;48.110;11.522;2023-04-30T07:46:57;17.20;60.10
16521;DHT22;8373;48.110;11.522;2023-04-30T07:49:24;17.40;60.80
16521;DHT22;8373;48.110;11.522;2023-04-30T07:51:51;17.50;60.50
16521;DHT22;8373;48.110;11.522;2023-04-30T07:54:18;17.70;60.40
16521;DHT22;8373;48.110;11.522;2023-04-30T07:56:45;17.90;59.50
16521;DHT22;8373;48.110;11.522;2023-04-30T07:59:13;18.00;58.70
16521;DHT22;8373;48.110;11.522;2023-04-30T08:01:41;18.10;58.90
16521;DHT22;8373;48.110;11.522;2023-04-30T08:04:08;18.10;58.60
16521;DHT22;8373;48.110;11.522;2023-04-30T08:06:35;18.10;58.70
16521;DHT22;8373;48.110;11.522;2023-04-30T08:09:02;19.40;59.90
16521;DHT22;8373;48.110;11.522;2023-04-30T08:11:30;20.30;57.40
16521;DHT22;8373;48.110;11.522;2023-04-30T08:13:57;20.40;54.10
16521;DHT22;8373;48.110;11.522;2023-04-30T08:16:24;19.90;53.70
16521;DHT22;8373;48.110;11.522;2023-04-30T08:18:53;19.40;54.80
16521;DHT22;8373;48.110;11.522;2023-04-30T08:21:20;20.10;55.10
16521;DHT22;8373;48.110;11.522;2023-04-30T08:23:47;19.90;54.70
16521;DHT22;8373;48.110;11.522;2023-04-30T08:26:14;19.40;54.50
16521;DHT22;8373;48.110;11.522;2023-04-30T08:28:41;19.80;54.60
16521;DHT22;8373;48.110;11.522;2023-04-30T08:31:08;20.40;54.60
16521;DHT22;8373;48.110;11.522;2023-04-30T08:33:35;20.00;53.50
16521;DHT22;8373;48.110;11.522;2023-04-30T08:36:04;19.60;54.10
16521;DHT22;8373;48.110;11.522;2023-04-30T08:38:31;19.80;55.50
16521;DHT22;8373;48.110;11.522;2023-04-30T08:41:04;20.20;54.10
16521;DHT22;8373;48.110;11.522;2023-04-30T08:43:34;20.00;53.20
16521;DHT22;8373;48.110;11.522;2023-04-30T08:46:02;19.50;53.90
16521;DHT22;8373;48.110;11.522;2023-04-30T08:48:30;19.10;54.90
16521;DHT22;8373;48.110;11.522;2023-04-30T08:50:59;18.90;55.30
16521;DHT22;8373;48.110;11.522;2023-04-30T08:53:28;18.70;56.30
16521;DHT22;8373;48.110;11.522;2023-04-30T08:55:55;18.60;56.80
16521;DHT22;8373;48.110;11.522;2023-04-30T08:58:22;18.60;58.00
16521;DHT22;8373;48.110;11.522;2023-04-30T09:00:49;18.40;56.70
16521;DHT22;8373;48.110;11.522;2023-04-30T09:03:16;18.20;56.90
16521;DHT22;8373;48.110;11.522;2023-04-30T09:05:43;18.00;57.60
16521;DHT22;8373;48.110;11.522;2023-04-30T09:08:16;17.90;57.70
16521;DHT22;8373;48.110;11.522;2023-04-30T09:10:45;18.10;58.30
16521;DHT22;8373;48.110;11.522;2023-04-30T09:13:12;18.20;57.90
16521;DHT22;8373;48.110;11.522;2023-04-30T09:15:39;18.30;57.10
16521;DHT22;8373;48.110;11.522;2023-04-30T09:18:09;18.00;56.60
16521;DHT22;8373;48.110;11.522;2023-04-30T09:20:37;17.80;56.40
16521;DHT22;8373;48.110;11.522;2023-04-30T09:23:05;17.70;56.90
16521;DHT22;8373;48.110;11.522;2023-04-30T09:25:37;17.50;57.30
16521;DHT22;8373;48.110;11.522;2023-04-30T09:28:10;17.40;57.90
16521;DHT22;8373;48.110;11.522;2023-04-30T09:30:38;17.30;57.90
16521;DHT22;8373;48.110;11.522;2023-04-30T09:33:06;17.20;58.20
16521;DHT22;8373;48.110;11.522;2023-04-30T09:35:34;17.20;59.00
16521;DHT22;8373;48.110;11.522;2023-04-30T09:38:02;17.20;59.20
16521;DHT22;8373;48.110;11.522;2023-04-30T09:40:34;17.30;59.50
16521;DHT22;8373;48.110;11.522;2023-04-30T09:43:02;17.40;59.30
16521;DHT22;8373;48.110;11.522;2023-04-30T09:45:43;17.40;57.70
16521;DHT22;8373;48.110;11.522;2023-04-30T09:48:12;17.30;57.50
16521;DHT22;8373;48.110;11.522;2023-04-30T09:50:41;17.30;57.80
16521;DHT22;8373;48.110;11.522;2023-04-30T09:53:11;17.30;58.20
16521;DHT22;8373;48.110;11.522;2023-04-30T09:55:41;17.30;58.50
16521;DHT22;8373;48.110;11.522;2023-04-30T09:58:10;17.40;57.70
16521;DHT22;8373;48.110;11.522;2023-04-30T10:00:38;17.40;57.40
16521;DHT22;8373;48.110;11.522;2023-04-30T10:03:08;17.40;57.00
16521;DHT22;8373;48.110;11.522;2023-04-30T10:05:37;17.50;57.10
16521;DHT22;8373;48.110;11.522;2023-04-30T10:08:07;17.50;57.40
16521;DHT22;8373;48.110;11.522;2023-04-30T10:10:37;17.50;57.20
16521;DHT22;8373;48.110;11.522;2023-04-30T10:13:10;17.40;56.90
16521;DHT22;8373;48.110;11.522;2023-04-30T10:15:47;17.50;57.00
16521;DHT22;8373;48.110;11.522;2023-04-30T10:18:20;17.50;57.00
16521;DHT22;8373;48.110;11.522;2023-04-30T10:20:50;17.60;57.00
16521;DHT22;8373;48.110;11.522;2023-04-30T10:23:20;17.70;56.50
16521;DHT22;8373;48.110;11.522;2023-04-30T10:25:47;17.70;56.40
16521;DHT22;8373;48.110;11.522;2023-04-30T10:28:16;17.80;55.90
16521;DHT22;8373;48.110;11.522;2023-04-30T10:30:43;17.90;55.80
16521;DHT22;8373;48.110;11.522;2023-04-30T10:33:17;18.00;56.30
16521;DHT22;8373;48.110;11.522;2023-04-30T10:35:50;18.10;56.20
16521;DHT22;8373;48.110;11.522;2023-04-30T10:38:21;18.20;56.20
16521;DHT22;8373;48.110;11.522;2023-04-30T10:40:49;18.40;56.00
16521;DHT22;8373;48.110;11.522;2023-04-30T10:43:17;18.50;55.60
16521;DHT22;8373;48.110;11.522;2023-04-30T10:45:46;18.60;54.80
16521;DHT22;8373;48.110;11.522;2023-04-30T10:48:15;18.60;53.60
16521;DHT22;8373;48.110;11.522;2023-04-30T10:50:52;18.70;53.40
16521;DHT22;8373;48.110;11.522;2023-04-30T10:53:19;18.90;54.10
16521;DHT22;8373;48.110;11.522;2023-04-30T10:55:52;19.10;54.00
16521;DHT22;8373;48.110;11.522;2023-04-30T10:58:23;19.30;53.30
16521;DHT22;8373;48.110;11.522;2023-04-30T11:00:53;19.50;53.10
16521;DHT22;8373;48.110;11.522;2023-04-30T11:03:27;19.80;52.90
16521;DHT22;8373;48.110;11.522;2023-04-30T11:05:56;20.10;52.30
16521;DHT22;8373;48.110;11.522;2023-04-30T11:08:32;20.40;51.90
16521;DHT22;8373;48.110;11.522;2023-04-30T11:10:59;20.50;51.00
16521;DHT22;8373;48.110;11.522;2023-04-30T11:13:28;20.60;50.40
16521;DHT22;8373;48.110;11.522;2023-04-30T11:16:01;20.70;49.90
16521;DHT22;8373;48.110;11.522;2023-04-30T11:18:29;20.70;49.50
16521;DHT22;8373;48.110;11.522;2023-04-30T11:20:58;20.80;49.10
16521;DHT22;8373;48.110;11.522;2023-04-30T11:23:25;20.80;48.80
16521;DHT22;8373;48.110;11.522;2023-04-30T11:25:54;20.70;49.30
16521;DHT22;8373;48.110;11.522;2023-04-30T11:28:23;20.60;48.70
16521;DHT22;8373;48.110;11.522;2023-04-30T11:30:52;20.50;49.20
16521;DHT22;8373;48.110;11.522;2023-04-30T11:33:19;20.40;49.20
16521;DHT22;8373;48.110;11.522;2023-04-30T11:35:47;20.50;48.50
16521;DHT22;8373;48.110;11.522;2023-04-30T11:38:19;20.30;48.80
16521;DHT22;8373;48.110;11.522;2023-04-30T11:40:47;20.10;48.90
16521;DHT22;8373;48.110;11.522;2023-04-30T11:43:21;19.90;49.80
16521;DHT22;8373;48.110;11.522;2023-04-30T11:46:06;19.70;50.00
16521;DHT22;8373;48.110;11.522;2023-04-30T11:48:34;19.50;50.30
16521;DHT22;8373;48.110;11.522;2023-04-30T11:51:12;19.30;50.70
16521;DHT22;8373;48.110;11.522;2023-04-30T11:53:41;19.20;51.10
16521;DHT22;8373;48.110;11.522;2023-04-30T11:56:08;19.10;51.80
16521;DHT22;8373;48.110;11.522;2023-04-30T11:58:36;18.90;51.80
16521;DHT22;8373;48.110;11.522;2023-04-30T12:01:04;18.80;52.20
16521;DHT22;8373;48.110;11.522;2023-04-30T12:03:33;18.70;51.70
16521;DHT22;8373;48.110;11.522;2023-04-30T12:06:05;18.60;51.90
16521;DHT22;8373;48.110;11.522;2023-04-30T12:08:35;18.50;51.20
16521;DHT22;8373;48.110;11.522;2023-04-30T12:11:03;18.40;51.40
16521;DHT22;8373;48.110;11.522;2023-04-30T12:13:32;18.30;51.90
16521;DHT22;8373;48.110;11.522;2023-04-30T12:15:59;18.30;52.30
16521;DHT22;8373;48.110;11.522;2023-04-30T12:18:27;18.40;52.00
16521;DHT22;8373;48.110;11.522;2023-04-30T12:20:54;18.40;52.00
16521;DHT22;8373;48.110;11.522;2023-04-30T12:23:21;18.40;51.70
16521;DHT22;8373;48.110;11.522;2023-04-30T12:25:49;18.30;51.70
16521;DHT22;8373;48.110;11.522;2023-04-30T12:28:17;18.40;51.80
16521;DHT22;8373;48.110;11.522;2023-04-30T12:30:44;18.50;52.00
16521;DHT22;8373;48.110;11.522;2023-04-30T12:33:12;18.60;51.30
16521;DHT22;8373;48.110;11.522;2023-04-30T12:35:42;18.70;51.10
16521;DHT22;8373;48.110;11.522;2023-04-30T12:38:09;19.00;50.90
16521;DHT22;8373;48.110;11.522;2023-04-30T12:40:36;19.40;51.40
16521;DHT22;8373;48.110;11.522;2023-04-30T12:43:04;19.80;50.30
16521;DHT22;8373;48.110;11.522;2023-04-30T12:45:47;20.30;49.50
16521;DHT22;8373;48.110;11.522;2023-04-30T12:48:16;20.80;48.60
16521;DHT22;8373;48.110;11.522;2023-04-30T12:50:49;20.90;47.30
16521;DHT22;8373;48.110;11.522;2023-04-30T12:53:17;20.90;46.80
16521;DHT22;8373;48.110;11.522;2023-04-30T12:55:49;20.80;46.40
16521;DHT22;8373;48.110;11.522;2023-04-30T12:58:32;20.80;46.90
16521;DHT22;8373;48.110;11.522;2023-04-30T13:01:00;21.00;46.50
16521;DHT22;8373;48.110;11.522;2023-04-30T13:03:27;21.10;46.40
16521;DHT22;8373;48.110;11.522;2023-04-30T13:05:54;21.20;46.30
16521;DHT22;8373;48.110;11.522;2023-04-30T13:08:21;21.30;46.70
16521;DHT22;8373;48.110;11.522;2023-04-30T13:10:48;21.00;47.00
16521;DHT22;8373;48.110;11.522;2023-04-30T13:13:16;20.80;47.50
16521;DHT22;8373;48.110;11.522;2023-04-30T13:15:43;20.80;47.90
16521;DHT22;8373;48.110;11.522;2023-04-30T13:18:11;20.80;47.40
16521;DHT22;8373;48.110;11.522;2023-04-30T13:20:40;20.80;47.60
16521;DHT22;8373;48.110;11.522;2023-04-30T13:23:08;20.90;48.00
16521;DHT22;8373;48.110;11.522;2023-04-30T13:25:36;21.00;47.60
16521;DHT22;8373;48.110;11.522;2023-04-30T13:28:04;20.90;47.30
16521;DHT22;8373;48.110;11.522;2023-04-30T13:30:31;20.70;47.10
16521;DHT22;8373;48.110;11.522;2023-04-30T13:32:58;20.50;47.20
16521;DHT22;8373;48.110;11.522;2023-04-30T13:35:27;20.20;47.40
16521;DHT22;8373;48.110;11.522;2023-04-30T13:37:54;20.00;47.50
16521;DHT22;8373;48.110;11.522;2023-04-30T13:40:22;19.90;48.20
16521;DHT22;8373;48.110;11.522;2023-04-30T13:42:49;20.00;48.10
16521;DHT22;8373;48.110;11.522;2023-04-30T13:45:16;20.00;47.80
16521;DHT22;8373;48.110;11.522;2023-04-30T13:47:43;20.10;48.30
16521;DHT22;8373;48.110;11.522;2023-04-30T13:50:13;20.30;47.60
16521;DHT22;8373;48.110;11.522;2023-04-30T13:52:41;20.30;47.40
16521;DHT22;8373;48.110;11.522;2023-04-30T13:55:09;20.20;47.10
16521;DHT22;8373;48.110;11.522;2023-04-30T13:57:36;20.20;47.00
16521;DHT22;8373;48.110;11.522;2023-04-30T14:00:05;20.20;47.10
16521;DHT22;8373;48.110;11.522;2023-04-30T14:02:33;20.10;47.60
16521;DHT22;8373;48.110;11.522;2023-04-30T14:05:01;20.10;47.60
16521;DHT22;8373;48.110;11.522;2023-04-30T14:07:29;20.20;47.90
16521;DHT22;8373;48.110;11.522;2023-04-30T14:09:58;20.10;47.60
16521;DHT22;8373;48.110;11.522;2023-04-30T14:12:25;20.10;47.50
16521;DHT22;8373;48.110;11.522;2023-04-30T14:14:52;20.10;47.10
16521;DHT22;8373;48.110;11.522;2023-04-30T14:17:20;19.90;47.00
16521;DHT22;8373;48.110;11.522;2023-04-30T14:19:47;19.80;46.80
16521;DHT22;8373;48.110;11.522;2023-04-30T14:22:14;19.80;47.10
16521;DHT22;8373;48.110;11.522;2023-04-30T14:24:41;19.80;47.50
16521;DHT22;8373;48.110;11.522;2023-04-30T14:27:09;19.90;47.10
16521;DHT22;8373;48.110;11.522;2023-04-30T14:29:36;19.80;47.30
16521;DHT22;8373;48.110;11.522;2023-04-30T14:32:04;19.80;46.60
16521;DHT22;8373;48.110;11.522;2023-04-30T14:34:32;19.60;46.50
16521;DHT22;8373;48.110;11.522;2023-04-30T14:37:01;19.50;47.00
16521;DHT22;8373;48.110;11.522;2023-04-30T14:39:28;19.50;47.10
16521;DHT22;8373;48.110;11.522;2023-04-30T14:41:55;19.40;46.70
16521;DHT22;8373;48.110;11.522;2023-04-30T14:44:24;19.40;47.10
16521;DHT22;8373;48.110;11.522;2023-04-30T14:46:51;19.40;47.60
16521;DHT22;8373;48.110;11.522;2023-04-30T14:49:18;19.30;47.40
16521;DHT22;8373;48.110;11.522;2023-04-30T14:51:45;19.30;47.20
16521;DHT22;8373;48.110;11.522;2023-04-30T14:54:12;19.20;47.10
16521;DHT22;8373;48.110;11.522;2023-04-30T14:56:40;19.10;48.40
16521;DHT22;8373;48.110;11.522;2023-04-30T14:59:07;19.10;49.20
16521;DHT22;8373;48.110;11.522;2023-04-30T15:01:35;19.20;49.50
16521;DHT22;8373;48.110;11.522;2023-04-30T15:04:02;19.20;49.40
16521;DHT22;8373;48.110;11.522;2023-04-30T15:06:29;19.30;49.50
16521;DHT22;8373;48.110;11.522;2023-04-30T15:08:56;19.30;49.10
16521;DHT22;8373;48.110;11.522;2023-04-30T15:11:23;19.30;48.80
16521;DHT22;8373;48.110;11.522;2023-04-30T15:13:51;19.20;49.60
16521;DHT22;8373;48.110;11.522;2023-04-30T15:16:19;19.20;49.20
16521;DHT22;8373;48.110;11.522;2023-04-30T15:18:47;19.20;49.10
16521;DHT22;8373;48.110;11.522;2023-04-30T15:21:14;19.10;49.80
16521;DHT22;8373;48.110;11.522;2023-04-30T15:23:41;19.10;49.60
16521;DHT22;8373;48.110;11.522;2023-04-30T15:26:08;19.00;49.80
16521;DHT22;8373;48.110;11.522;2023-04-30T15:28:35;18.90;50.80
16521;DHT22;8373;48.110;11.522;2023-04-30T15:31:02;19.00;50.40
16521;DHT22;8373;48.110;11.522;2023-04-30T15:33:30;19.10;49.70
16521;DHT22;8373;48.110;11.522;2023-04-30T15:36:00;19.10;49.90
16521;DHT22;8373;48.110;11.522;2023-04-30T15:38:27;19.10;49.90